AAL38 KMIA-EGLL
Flight info
| Callsign | AAL38 |
|---|---|
| Flight time | N/A |
| Altitude | 35000 |
| Route | FOLZZ3 SNAGY/M083F350 DCT ONGOT DCT DRYED M201 CARAC/N0491F350 DCT PORTI/M083F370 DCT 47N050W 49N040W 51N030W 52N020W DCT LIMRI DCT XETBO/N0464F370 DCT EVRIN DCT JETZI DCT AMFUL DCT ORZEB/N0389F230 P2 SIRIC |
| Aircraft | B77W/H-SDE1E2E3FGHIJ2J3J4J5M1RWXY/LB1D1 |
Departure
| Time | N/A |
|---|---|
| Airport | Miami International Airport (KMIA) |
Arrival
| Time | 2026-05-04 15:51 |
|---|---|
| Airport | London Heathrow Airport (EGLL) |
| Time | Latitude | Longitude | Altitude | Speed | Heading |
|---|---|---|---|---|---|
| 2026-05-04 15:14 | 51.66531 | -5.33756 | 37049 ft | 469 kts | 99° |
| 2026-05-04 15:15 | 51.65691 | -5.25444 | 37008 ft | 470 kts | 99° |
| 2026-05-04 15:15 | 51.63570 | -5.04708 | 37022 ft | 471 kts | 99° |
| 2026-05-04 15:16 | 51.60296 | -4.73415 | 37028 ft | 471 kts | 99° |
| 2026-05-04 15:17 | 51.56968 | -4.42443 | 37003 ft | 471 kts | 100° |
| 2026-05-04 15:17 | 51.53537 | -4.11312 | 37000 ft | 470 kts | 100° |
| 2026-05-04 15:18 | 51.51340 | -3.91758 | 36981 ft | 471 kts | 101° |
| 2026-05-04 15:19 | 51.49587 | -3.76590 | 36107 ft | 451 kts | 101° |
| 2026-05-04 15:19 | 51.49012 | -3.71718 | 35670 ft | 446 kts | 101° |
| 2026-05-04 15:19 | 51.47887 | -3.61993 | 34760 ft | 439 kts | 99° |
| 2026-05-04 15:20 | 51.47551 | -3.57165 | 34315 ft | 438 kts | 96° |
| 2026-05-04 15:20 | 51.47277 | -3.52308 | 33844 ft | 436 kts | 96° |
| 2026-05-04 15:20 | 51.47009 | -3.47450 | 33316 ft | 435 kts | 96° |
| 2026-05-04 15:20 | 51.46740 | -3.42628 | 32839 ft | 432 kts | 96° |
| 2026-05-04 15:21 | 51.46469 | -3.37894 | 32388 ft | 430 kts | 96° |
| 2026-05-04 15:21 | 51.46190 | -3.33112 | 31930 ft | 428 kts | 96° |
| 2026-05-04 15:21 | 51.45628 | -3.23686 | 31082 ft | 422 kts | 97° |
| 2026-05-04 15:22 | 51.45344 | -3.19009 | 30634 ft | 419 kts | 97° |
| 2026-05-04 15:22 | 51.45061 | -3.14384 | 30209 ft | 415 kts | 97° |
| 2026-05-04 15:22 | 51.44500 | -3.05299 | 29258 ft | 407 kts | 97° |
| 2026-05-04 15:23 | 51.44219 | -3.00795 | 28813 ft | 402 kts | 97° |
| 2026-05-04 15:23 | 51.43940 | -2.96338 | 28376 ft | 398 kts | 98° |
| 2026-05-04 15:23 | 51.43662 | -2.91932 | 27941 ft | 394 kts | 98° |
| 2026-05-04 15:23 | 51.43389 | -2.87623 | 27509 ft | 391 kts | 98° |
| 2026-05-04 15:24 | 51.42839 | -2.79018 | 26668 ft | 385 kts | 98° |
| 2026-05-04 15:24 | 51.42290 | -2.70562 | 25834 ft | 380 kts | 98° |
| 2026-05-04 15:25 | 51.42016 | -2.66360 | 25415 ft | 378 kts | 98° |
| 2026-05-04 15:25 | 51.41742 | -2.62182 | 25007 ft | 376 kts | 98° |
| 2026-05-04 15:25 | 51.41466 | -2.57997 | 24598 ft | 374 kts | 98° |
| 2026-05-04 15:26 | 51.40920 | -2.49781 | 23786 ft | 372 kts | 98° |
| 2026-05-04 15:26 | 51.40643 | -2.45648 | 23332 ft | 371 kts | 98° |
| 2026-05-04 15:26 | 51.40087 | -2.37453 | 22426 ft | 367 kts | 98° |
| 2026-05-04 15:27 | 51.39812 | -2.33442 | 22031 ft | 365 kts | 98° |
| 2026-05-04 15:27 | 51.39259 | -2.25383 | 21197 ft | 361 kts | 98° |
| 2026-05-04 15:28 | 51.38708 | -2.17463 | 20381 ft | 358 kts | 98° |
| 2026-05-04 15:28 | 51.38432 | -2.13505 | 19974 ft | 357 kts | 98° |
| 2026-05-04 15:28 | 51.37882 | -2.05670 | 19169 ft | 355 kts | 98° |
| 2026-05-04 15:29 | 51.37602 | -2.01737 | 18765 ft | 354 kts | 98° |
| 2026-05-04 15:30 | 51.36482 | -1.86178 | 17071 ft | 350 kts | 98° |
| 2026-05-04 15:30 | 51.35651 | -1.74790 | 15884 ft | 337 kts | 98° |
| 2026-05-04 15:31 | 51.35101 | -1.67341 | 15123 ft | 336 kts | 98° |
| 2026-05-04 15:31 | 51.34825 | -1.63624 | 14747 ft | 337 kts | 98° |
| 2026-05-04 15:32 | 51.33991 | -1.52475 | 13747 ft | 331 kts | 98° |
| 2026-05-04 15:32 | 51.33458 | -1.45326 | 13248 ft | 321 kts | 98° |
| 2026-05-04 15:33 | 51.32924 | -1.38248 | 12815 ft | 318 kts | 98° |
| 2026-05-04 15:34 | 51.32129 | -1.27786 | 12163 ft | 315 kts | 98° |
| 2026-05-04 15:34 | 51.31863 | -1.24308 | 11949 ft | 315 kts | 98° |
| 2026-05-04 15:34 | 51.31330 | -1.17393 | 11499 ft | 313 kts | 97° |
| 2026-05-04 15:35 | 51.31164 | -1.10464 | 11071 ft | 310 kts | 91° |
| 2026-05-04 15:35 | 51.31163 | -1.07028 | 10868 ft | 308 kts | 91° |
| 2026-05-04 15:35 | 51.31156 | -1.03607 | 10659 ft | 306 kts | 91° |
| 2026-05-04 15:36 | 51.31117 | -0.96881 | 10251 ft | 299 kts | 91° |
| 2026-05-04 15:36 | 51.31090 | -0.93594 | 10027 ft | 293 kts | 91° |
| 2026-05-04 15:36 | 51.31059 | -0.90365 | 9824 ft | 287 kts | 91° |
| 2026-05-04 15:37 | 51.31028 | -0.87205 | 9610 ft | 280 kts | 92° |
| 2026-05-04 15:37 | 51.30996 | -0.84147 | 9413 ft | 276 kts | 92° |
| 2026-05-04 15:37 | 51.30963 | -0.81097 | 9225 ft | 273 kts | 92° |
| 2026-05-04 15:37 | 51.30928 | -0.78061 | 9044 ft | 273 kts | 91° |
| 2026-05-04 15:38 | 51.30894 | -0.75022 | 8869 ft | 273 kts | 92° |
| 2026-05-04 15:38 | 51.30858 | -0.71983 | 8660 ft | 273 kts | 92° |
| 2026-05-04 15:38 | 51.30821 | -0.68960 | 8484 ft | 272 kts | 91° |
| 2026-05-04 15:38 | 51.30785 | -0.65968 | 8292 ft | 272 kts | 91° |
| 2026-05-04 15:39 | 51.30747 | -0.62941 | 8120 ft | 272 kts | 91° |
| 2026-05-04 15:39 | 51.30709 | -0.59943 | 7925 ft | 273 kts | 91° |
| 2026-05-04 15:39 | 51.30630 | -0.53854 | 7385 ft | 276 kts | 91° |
| 2026-05-04 15:40 | 51.30589 | -0.50768 | 7038 ft | 277 kts | 91° |
| 2026-05-04 15:40 | 51.30546 | -0.47685 | 7012 ft | 279 kts | 91° |
| 2026-05-04 15:40 | 51.30518 | -0.44574 | 7001 ft | 284 kts | 87° |
| 2026-05-04 15:40 | 51.30872 | -0.41461 | 7024 ft | 286 kts | 74° |
| 2026-05-04 15:41 | 51.31452 | -0.38405 | 7000 ft | 290 kts | 72° |
| 2026-05-04 15:41 | 51.32042 | -0.35275 | 7000 ft | 294 kts | 73° |
| 2026-05-04 15:41 | 51.32574 | -0.32247 | 6973 ft | 269 kts | 75° |
| 2026-05-04 15:41 | 51.33043 | -0.29478 | 6997 ft | 254 kts | 75° |
| 2026-05-04 15:42 | 51.33488 | -0.26823 | 6987 ft | 240 kts | 75° |
| 2026-05-04 15:42 | 51.33918 | -0.24250 | 6790 ft | 242 kts | 76° |
| 2026-05-04 15:42 | 51.34323 | -0.21818 | 6545 ft | 247 kts | 76° |
| 2026-05-04 15:42 | 51.34766 | -0.19151 | 6260 ft | 249 kts | 75° |
| 2026-05-04 15:43 | 51.35210 | -0.16476 | 5968 ft | 247 kts | 75° |
| 2026-05-04 15:43 | 51.35642 | -0.13866 | 5648 ft | 245 kts | 74° |
| 2026-05-04 15:43 | 51.36436 | -0.11528 | 5336 ft | 237 kts | 40° |
| 2026-05-04 15:43 | 51.37857 | -0.10323 | 5048 ft | 230 kts | 12° |
| 2026-05-04 15:44 | 51.39444 | -0.10057 | 4767 ft | 227 kts | 359° |
| 2026-05-04 15:44 | 51.40994 | -0.10084 | 4477 ft | 222 kts | 2° |
| 2026-05-04 15:44 | 51.42420 | -0.09383 | 4182 ft | 212 kts | 34° |
| 2026-05-04 15:44 | 51.43483 | -0.07810 | 4009 ft | 207 kts | 48° |
| 2026-05-04 15:45 | 51.44377 | -0.06094 | 4021 ft | 195 kts | 41° |
| 2026-05-04 15:45 | 51.45561 | -0.05189 | 4058 ft | 193 kts | 2° |
| 2026-05-04 15:45 | 51.46827 | -0.05725 | 4045 ft | 191 kts | 322° |
| 2026-05-04 15:45 | 51.47568 | -0.07415 | 4041 ft | 192 kts | 283° |
| 2026-05-04 15:46 | 51.47490 | -0.09572 | 3826 ft | 201 kts | 256° |
| 2026-05-04 15:46 | 51.47189 | -0.11800 | 3495 ft | 204 kts | 258° |
| 2026-05-04 15:46 | 51.46901 | -0.13987 | 3289 ft | 199 kts | 257° |
| 2026-05-04 15:46 | 51.46703 | -0.16163 | 3068 ft | 189 kts | 266° |
| 2026-05-04 15:47 | 51.46666 | -0.18206 | 3024 ft | 189 kts | 270° |
| 2026-05-04 15:47 | 51.46654 | -0.20324 | 2947 ft | 190 kts | 270° |
| 2026-05-04 15:47 | 51.46644 | -0.22435 | 2686 ft | 186 kts | 269° |
| 2026-05-04 15:47 | 51.46630 | -0.24457 | 2454 ft | 175 kts | 269° |
| 2026-05-04 15:48 | 51.46616 | -0.26326 | 2220 ft | 169 kts | 270° |
| 2026-05-04 15:48 | 51.46606 | -0.28205 | 2004 ft | 167 kts | 269° |
| 2026-05-04 15:48 | 51.46582 | -0.31751 | 1573 ft | 148 kts | 270° |
| 2026-05-04 15:49 | 51.46558 | -0.33401 | 1409 ft | 149 kts | 268° |
| 2026-05-04 15:49 | 51.46494 | -0.35033 | 1280 ft | 148 kts | 268° |
| 2026-05-04 15:49 | 51.46479 | -0.36697 | 1191 ft | 150 kts | 271° |
| 2026-05-04 15:49 | 51.46476 | -0.38400 | 947 ft | 152 kts | 270° |
| 2026-05-04 15:50 | 51.46492 | -0.40055 | 629 ft | 144 kts | 272° |
| 2026-05-04 15:50 | 51.46496 | -0.41651 | 380 ft | 146 kts | 271° |
| 2026-05-04 15:50 | 51.46494 | -0.43290 | 170 ft | 146 kts | 270° |
| 2026-05-04 15:50 | 51.46490 | -0.44852 | 94 ft | 127 kts | 270° |
| 2026-05-04 15:51 | 51.46494 | -0.46050 | 91 ft | 72 kts | 270° |
| 2026-05-04 15:51 | 51.46508 | -0.46619 | 96 ft | 38 kts | 288° |
| 2026-05-04 15:51 | 51.46579 | -0.46818 | 96 ft | 13 kts | 317° |
| 2026-05-04 15:51 | 51.46659 | -0.46864 | 94 ft | 9 kts | 2° |
| 2026-05-04 15:52 | 51.46726 | -0.46859 | 91 ft | 7 kts | 4° |
| 2026-05-04 15:52 | 51.46750 | -0.46794 | 94 ft | 8 kts | 85° |
| 2026-05-04 15:52 | 51.46747 | -0.46692 | 95 ft | 11 kts | 91° |
| 2026-05-04 15:52 | 51.46748 | -0.46561 | 94 ft | 12 kts | 89° |
| 2026-05-04 15:53 | 51.46765 | -0.46458 | 95 ft | 9 kts | 38° |
| 2026-05-04 15:53 | 51.46806 | -0.46466 | 95 ft | 10 kts | 333° |
| 2026-05-04 15:53 | 51.46872 | -0.46530 | 95 ft | 12 kts | 327° |
| 2026-05-04 15:53 | 51.46952 | -0.46619 | 93 ft | 8 kts | 326° |
| 2026-05-04 15:54 | 51.46968 | -0.46633 | 95 ft | 1 kts | 347° |
| 2026-05-04 15:54 | 51.46988 | -0.46612 | 95 ft | 2 kts | 49° |
| 2026-05-04 15:54 | 51.47004 | -0.46570 | 95 ft | 5 kts | 58° |
| 2026-05-04 15:54 | 51.47019 | -0.46536 | 95 ft | 3 kts | 56° |
| 2026-05-04 15:55 | 51.47019 | -0.46534 | 95 ft | 0 kts | 56° |
| 2026-05-04 16:09 | 51.47018 | -0.46536 | 91 ft | 0 kts | 55° |